Time;durP1;ratioP1;P1;durP2;ratioP2;P2;SDS_P1;SDS_P2;PMS_P1;PMS_P2;Temp;Humidity;BMP_temperature;BMP_pressure;BME280_temperature;BME280_humidity;BME280_pressure;Samples;Min_cycle;Max_cycle;Signal;HPM_P1;HPM_P2
2022/06/30 00:01:55;;;;;;;6.57;3.35;;;;;;;;;;5001474;28;20436;-77
2022/06/30 00:04:21;;;;;;;5.93;3.25;;;;;;;;;;5009862;28;20157;-77
2022/06/30 00:06:47;;;;;;;5.80;2.92;;;;;;;;;;5012183;28;20495;-77
2022/06/30 00:09:13;;;;;;;5.65;2.80;;;;;;;;;;5011901;28;20033;-77
2022/06/30 00:11:41;;;;;;;6.05;2.90;;;;;;;;;;4999399;28;20097;-76
2022/06/30 00:14:07;;;;;;;6.20;3.28;;;;;;;;;;4999206;28;20026;-77
2022/06/30 00:16:33;;;;;;;6.78;3.10;;;;;;;;;;4991626;28;20022;-77
2022/06/30 00:18:59;;;;;;;5.30;3.08;;;;;;;;;;4992112;28;20030;-77
2022/06/30 00:21:25;;;;;;;6.13;3.03;;;;;;;;;;4996663;28;20480;-77
2022/06/30 00:23:51;;;;;;;5.97;3.20;;;;;;;;;;4996881;28;20062;-77
2022/06/30 00:26:17;;;;;;;6.65;3.17;;;;;;;;;;4991747;28;20514;-77
2022/06/30 00:28:44;;;;;;;7.10;3.05;;;;;;;;;;4991917;28;20034;-77
2022/06/30 00:31:10;;;;;;;7.55;3.90;;;;;;;;;;4995077;28;20484;-77
2022/06/30 00:33:36;;;;;;;6.68;3.50;;;;;;;;;;4999629;28;20027;-77
2022/06/30 00:36:02;;;;;;;8.30;3.60;;;;;;;;;;4991831;28;20042;-78
2022/06/30 00:38:28;;;;;;;6.18;3.50;;;;;;;;;;4992066;28;20050;-77
2022/06/30 00:40:54;;;;;;;7.25;4.03;;;;;;;;;;4992525;28;20467;-78
2022/06/30 00:43:20;;;;;;;6.50;3.70;;;;;;;;;;5012875;28;20387;-77
2022/06/30 00:45:47;;;;;;;6.00;3.28;;;;;;;;;;5015645;28;20022;-77
2022/06/30 00:48:13;;;;;;;5.30;3.08;;;;;;;;;;5004603;28;20035;-77
2022/06/30 00:50:39;;;;;;;6.03;3.55;;;;;;;;;;4995840;28;20050;-77
2022/06/30 00:53:06;;;;;;;6.78;3.50;;;;;;;;;;5006335;28;20023;-77
2022/06/30 00:55:33;;;;;;;6.10;3.35;;;;;;;;;;4995670;28;20029;-77
2022/06/30 00:58:00;;;;;;;6.72;3.42;;;;;;;;;;4995373;28;20034;-77
2022/06/30 01:00:27;;;;;;;5.95;3.05;;;;;;;;;;5005139;28;20026;-78
2022/06/30 01:02:53;;;;;;;6.85;3.58;;;;;;;;;;5006491;28;20037;-77
2022/06/30 01:05:21;;;;;;;6.00;3.50;;;;;;;;;;4995503;28;20049;-77
2022/06/30 01:07:47;;;;;;;6.45;3.60;;;;;;;;;;4995535;28;20034;-78
2022/06/30 01:12:58;;;;;;;6.53;3.60;;;;;;;;;;5002293;28;20033;-77
2022/06/30 01:15:24;;;;;;;5.95;3.70;;;;;;;;;;4994573;28;20104;-77
2022/06/30 01:17:51;;;;;;;6.10;3.55;;;;;;;;;;4994497;28;20507;-77
2022/06/30 01:20:18;;;;;;;6.25;3.90;;;;;;;;;;4994949;28;20034;-77
2022/06/30 01:22:44;;;;;;;6.03;3.70;;;;;;;;;;4994480;28;20468;-77
2022/06/30 01:25:11;;;;;;;6.07;3.50;;;;;;;;;;4994681;28;20034;-77
2022/06/30 01:27:37;;;;;;;7.97;4.32;;;;;;;;;;5008948;28;20038;-78
2022/06/30 01:30:04;;;;;;;6.47;3.88;;;;;;;;;;4997341;28;20026;-77
2022/06/30 01:32:31;;;;;;;6.32;3.83;;;;;;;;;;5004676;28;20139;-78
2022/06/30 01:34:57;;;;;;;7.05;3.95;;;;;;;;;;5014417;28;20121;-77
2022/06/30 01:37:24;;;;;;;7.28;3.85;;;;;;;;;;5012236;28;20042;-77
2022/06/30 01:39:51;;;;;;;6.43;3.55;;;;;;;;;;5014871;28;20046;-78
2022/06/30 01:42:17;;;;;;;6.93;3.75;;;;;;;;;;5010876;28;20435;-78
2022/06/30 01:44:43;;;;;;;6.47;3.72;;;;;;;;;;4996486;28;20033;-78
2022/06/30 01:47:10;;;;;;;7.55;3.92;;;;;;;;;;4996067;28;20041;-78
2022/06/30 01:49:36;;;;;;;7.25;4.20;;;;;;;;;;4998864;28;20040;-78
2022/06/30 01:52:03;;;;;;;7.65;3.67;;;;;;;;;;5003521;28;20022;-78
2022/06/30 01:54:29;;;;;;;7.32;4.43;;;;;;;;;;5003645;28;20022;-78
2022/06/30 01:56:55;;;;;;;6.20;3.90;;;;;;;;;;4998723;28;20022;-78
2022/06/30 01:59:21;;;;;;;7.78;4.05;;;;;;;;;;5002015;28;20408;-79
2022/06/30 02:01:47;;;;;;;7.03;4.38;;;;;;;;;;4994436;28;20035;-78
2022/06/30 02:06:58;;;;;;;6.93;4.10;;;;;;;;;;5009036;28;20400;-78
2022/06/30 02:09:24;;;;;;;7.05;3.92;;;;;;;;;;5001203;28;20615;-78
2022/06/30 02:12:44;;;;;;;9.50;4.90;;;;;;;;;;4994274;28;20027;-78
2022/06/30 02:14:36;;;;;;;9.18;4.72;;;;;;;;;;4993469;28;20496;-78
2022/06/30 02:17:02;;;;;;;6.60;3.95;;;;;;;;;;4994273;28;20648;-78
2022/06/30 02:19:28;;;;;;;6.88;4.25;;;;;;;;;;4987176;28;20049;-78
2022/06/30 02:21:54;;;;;;;7.25;4.80;;;;;;;;;;5013833;28;20385;-78
2022/06/30 02:24:20;;;;;;;7.45;5.07;;;;;;;;;;5013671;28;20532;-78
2022/06/30 02:26:46;;;;;;;7.25;4.13;;;;;;;;;;5013925;28;20471;-78
2022/06/30 02:29:12;;;;;;;8.13;4.47;;;;;;;;;;5001964;28;20432;-78
2022/06/30 02:31:38;;;;;;;9.48;5.32;;;;;;;;;;4996854;28;20026;-78
2022/06/30 02:34:04;;;;;;;8.23;5.00;;;;;;;;;;4994343;28;20074;-78
2022/06/30 02:36:30;;;;;;;8.10;5.03;;;;;;;;;;4974594;28;20031;-78
2022/06/30 02:38:56;;;;;;;8.65;4.78;;;;;;;;;;4980473;28;20109;-79
2022/06/30 02:41:22;;;;;;;9.15;5.38;;;;;;;;;;4991964;28;20117;-78
2022/06/30 02:43:48;;;;;;;9.52;5.35;;;;;;;;;;5009389;28;20033;-78
2022/06/30 02:46:15;;;;;;;8.43;4.88;;;;;;;;;;5008938;28;20025;-78
2022/06/30 02:48:41;;;;;;;8.50;4.70;;;;;;;;;;4998132;28;20030;-76
2022/06/30 02:51:07;;;;;;;8.50;5.00;;;;;;;;;;4993505;28;20045;-78
2022/06/30 02:53:33;;;;;;;7.78;5.10;;;;;;;;;;4997070;28;20029;-78
2022/06/30 02:55:59;;;;;;;9.65;5.15;;;;;;;;;;5005240;28;20730;-79
2022/06/30 02:58:25;;;;;;;8.32;5.30;;;;;;;;;;4995348;28;20539;-78
2022/06/30 03:00:51;;;;;;;9.55;5.03;;;;;;;;;;5004593;28;20112;-79
2022/06/30 03:03:17;;;;;;;9.00;5.32;;;;;;;;;;5005383;28;20464;-79
2022/06/30 03:05:43;;;;;;;9.27;4.82;;;;;;;;;;5003409;28;20097;-79
2022/06/30 03:08:09;;;;;;;9.18;4.78;;;;;;;;;;5001402;28;20105;-78
2022/06/30 03:10:36;;;;;;;8.88;5.18;;;;;;;;;;4995676;28;20049;-78
2022/06/30 03:13:02;;;;;;;10.98;5.95;;;;;;;;;;4994381;28;20026;-79
2022/06/30 03:15:28;;;;;;;9.52;5.93;;;;;;;;;;4994525;28;20507;-79
2022/06/30 03:17:56;;;;;;;10.50;5.75;;;;;;;;;;4993265;28;20038;-78
2022/06/30 03:20:22;;;;;;;10.68;6.25;;;;;;;;;;4994640;28;20029;-78
2022/06/30 03:22:48;;;;;;;9.20;5.93;;;;;;;;;;4992380;28;20034;-78
2022/06/30 03:25:14;;;;;;;10.52;6.20;;;;;;;;;;5000741;28;20060;-78
2022/06/30 03:27:40;;;;;;;9.95;5.47;;;;;;;;;;4998862;28;20039;-79
2022/06/30 03:30:07;;;;;;;8.95;5.68;;;;;;;;;;4992314;28;20060;-78
2022/06/30 03:32:33;;;;;;;9.30;5.35;;;;;;;;;;4993060;28;20034;-77
2022/06/30 03:34:59;;;;;;;9.57;6.07;;;;;;;;;;4992004;28;20034;-78
2022/06/30 03:37:25;;;;;;;11.48;5.95;;;;;;;;;;4993364;28;20077;-78
2022/06/30 03:39:51;;;;;;;10.50;6.10;;;;;;;;;;4990479;28;20018;-77
2022/06/30 03:42:17;;;;;;;9.35;5.78;;;;;;;;;;4991887;28;20135;-77
2022/06/30 03:44:43;;;;;;;10.02;5.95;;;;;;;;;;4992380;28;20030;-78
2022/06/30 03:47:09;;;;;;;10.65;5.85;;;;;;;;;;4991802;28;20069;-77
2022/06/30 03:49:35;;;;;;;8.77;5.85;;;;;;;;;;4995145;28;20758;-79
2022/06/30 03:52:01;;;;;;;9.35;5.15;;;;;;;;;;5010165;28;20097;-78
2022/06/30 03:54:27;;;;;;;9.45;4.90;;;;;;;;;;4984497;28;20118;-78
2022/06/30 03:56:53;;;;;;;10.32;5.97;;;;;;;;;;4989839;28;20022;-77
2022/06/30 03:59:19;;;;;;;8.10;4.80;;;;;;;;;;4991144;28;20448;-78
2022/06/30 04:01:46;;;;;;;8.40;5.15;;;;;;;;;;4988468;28;20033;-77
2022/06/30 04:04:12;;;;;;;12.13;7.00;;;;;;;;;;4992523;28;20492;-78
2022/06/30 04:06:38;;;;;;;10.00;5.43;;;;;;;;;;4999671;28;20037;-78
2022/06/30 04:09:04;;;;;;;10.02;6.25;;;;;;;;;;4990587;28;20022;-80
2022/06/30 04:11:30;;;;;;;9.32;5.30;;;;;;;;;;4992285;28;20025;-78
2022/06/30 04:13:56;;;;;;;10.73;5.72;;;;;;;;;;4989729;28;20026;-76
2022/06/30 04:16:22;;;;;;;8.60;5.72;;;;;;;;;;4983738;28;20030;-78
2022/06/30 04:18:48;;;;;;;10.07;5.22;;;;;;;;;;4990457;28;20551;-78
2022/06/30 04:21:16;;;;;;;9.85;5.90;;;;;;;;;;4991085;28;20420;-78
2022/06/30 04:23:43;;;;;;;9.52;5.80;;;;;;;;;;4990638;28;20061;-77
2022/06/30 04:26:09;;;;;;;8.93;4.95;;;;;;;;;;5005183;28;20068;-77
2022/06/30 04:28:36;;;;;;;9.80;5.30;;;;;;;;;;5003833;28;20037;-77
2022/06/30 04:33:46;;;;;;;10.68;5.13;;;;;;;;;;4995911;28;20076;-78
2022/06/30 04:36:13;;;;;;;11.63;5.60;;;;;;;;;;4991248;28;20443;-78
2022/06/30 04:38:39;;;;;;;7.97;4.80;;;;;;;;;;4990747;28;20035;-79
2022/06/30 04:43:50;;;;;;;9.00;5.43;;;;;;;;;;4991569;28;20145;-78
2022/06/30 04:46:16;;;;;;;8.13;4.47;;;;;;;;;;4988088;28;20624;-78
2022/06/30 04:48:42;;;;;;;8.75;4.43;;;;;;;;;;4997137;28;20030;-78
2022/06/30 04:51:08;;;;;;;6.60;4.38;;;;;;;;;;4992412;28;20022;-78
2022/06/30 04:53:34;;;;;;;9.23;5.22;;;;;;;;;;4991354;28;20030;-78
2022/06/30 04:56:00;;;;;;;7.43;4.25;;;;;;;;;;5003278;28;20022;-78
2022/06/30 04:58:26;;;;;;;9.85;4.60;;;;;;;;;;5011979;28;20030;-78
2022/06/30 05:00:52;;;;;;;7.75;4.07;;;;;;;;;;5010017;28;20097;-78
2022/06/30 05:03:18;;;;;;;7.30;4.22;;;;;;;;;;5000837;28;20022;-78
2022/06/30 05:05:44;;;;;;;6.93;4.55;;;;;;;;;;4989791;28;20037;-78
2022/06/30 05:08:10;;;;;;;9.02;4.45;;;;;;;;;;4992906;28;20390;-78
2022/06/30 05:10:36;;;;;;;7.03;4.22;;;;;;;;;;4992174;28;20469;-79
2022/06/30 05:13:03;;;;;;;10.30;4.55;;;;;;;;;;4986541;28;20178;-79
2022/06/30 05:15:30;;;;;;;7.38;4.53;;;;;;;;;;4988763;28;20031;-78
2022/06/30 05:17:57;;;;;;;8.40;4.70;;;;;;;;;;4992351;28;20022;-78
2022/06/30 05:20:23;;;;;;;8.15;4.47;;;;;;;;;;4991812;28;20040;-78
2022/06/30 05:22:49;;;;;;;7.32;5.05;;;;;;;;;;4991239;28;20035;-79
2022/06/30 05:28:00;;;;;;;8.23;5.22;;;;;;;;;;4996860;28;20037;-79
2022/06/30 05:30:26;;;;;;;7.15;4.45;;;;;;;;;;5010072;28;20066;-79
2022/06/30 05:32:52;;;;;;;8.43;5.32;;;;;;;;;;5016766;28;20108;-79
2022/06/30 05:35:18;;;;;;;8.82;4.80;;;;;;;;;;5014536;28;20049;-79
2022/06/30 05:37:44;;;;;;;8.73;5.25;;;;;;;;;;5000174;28;20037;-79
2022/06/30 05:40:10;;;;;;;7.38;4.53;;;;;;;;;;4999835;28;20033;-78
2022/06/30 05:42:36;;;;;;;8.07;4.85;;;;;;;;;;5016074;28;20484;-78
2022/06/30 05:45:03;;;;;;;7.82;4.63;;;;;;;;;;5016515;28;20033;-78
2022/06/30 05:47:29;;;;;;;7.07;4.60;;;;;;;;;;5013820;28;20479;-79
2022/06/30 05:49:55;;;;;;;8.30;4.28;;;;;;;;;;5011482;28;20080;-79
2022/06/30 05:52:21;;;;;;;7.60;4.35;;;;;;;;;;5016153;28;20022;-79
2022/06/30 05:54:47;;;;;;;6.88;4.28;;;;;;;;;;5016361;28;20494;-78
2022/06/30 05:57:13;;;;;;;7.75;4.68;;;;;;;;;;5005424;28;20015;-78
2022/06/30 05:59:39;;;;;;;8.20;4.45;;;;;;;;;;4996869;28;20105;-78
2022/06/30 06:02:06;;;;;;;7.70;4.72;;;;;;;;;;4995376;28;20058;-78
2022/06/30 06:04:32;;;;;;;7.65;4.10;;;;;;;;;;5008074;28;20052;-78
2022/06/30 06:06:58;;;;;;;7.00;4.20;;;;;;;;;;5014569;28;20483;-79
2022/06/30 06:09:24;;;;;;;7.15;3.92;;;;;;;;;;5016906;28;20022;-79
2022/06/30 06:11:50;;;;;;;6.95;4.40;;;;;;;;;;5006140;28;20468;-78
2022/06/30 06:14:16;;;;;;;6.50;4.40;;;;;;;;;;4996885;28;20068;-79
2022/06/30 06:16:42;;;;;;;7.00;4.60;;;;;;;;;;4991831;28;20148;-78
2022/06/30 06:19:08;;;;;;;6.50;4.20;;;;;;;;;;4977147;28;20054;-78
2022/06/30 06:21:36;;;;;;;9.30;5.43;;;;;;;;;;4977105;28;20030;-78
2022/06/30 06:24:02;;;;;;;8.10;3.65;;;;;;;;;;4977647;28;20511;-78
2022/06/30 06:26:28;;;;;;;6.97;3.83;;;;;;;;;;4983923;28;20038;-80
2022/06/30 06:29:06;;;;;;;5.90;3.45;;;;;;;;;;4996640;28;20030;-79
2022/06/30 06:31:33;;;;;;;6.93;3.97;;;;;;;;;;4995351;28;20022;-80
2022/06/30 06:34:00;;;;;;;6.95;4.32;;;;;;;;;;4996389;28;20043;-79
2022/06/30 06:36:27;;;;;;;8.02;5.03;;;;;;;;;;4996858;28;20027;-78
2022/06/30 06:38:53;;;;;;;8.02;4.10;;;;;;;;;;5006863;28;20059;-79
2022/06/30 06:41:20;;;;;;;7.07;4.60;;;;;;;;;;5015532;28;20057;-79
2022/06/30 06:43:47;;;;;;;7.93;4.65;;;;;;;;;;5013552;28;20032;-79
2022/06/30 06:46:13;;;;;;;7.82;4.80;;;;;;;;;;5015482;28;20057;-79
2022/06/30 06:48:40;;;;;;;7.35;4.88;;;;;;;;;;5015579;28;20041;-79
2022/06/30 06:51:06;;;;;;;7.05;4.28;;;;;;;;;;5014187;28;20048;-79
2022/06/30 06:53:32;;;;;;;7.50;4.25;;;;;;;;;;5016282;28;20400;-79
2022/06/30 06:55:58;;;;;;;7.00;4.43;;;;;;;;;;5015853;28;20105;-78
2022/06/30 06:58:24;;;;;;;7.50;4.38;;;;;;;;;;5013028;28;20029;-78
2022/06/30 07:00:52;;;;;;;7.22;4.38;;;;;;;;;;5014200;28;20033;-79
2022/06/30 07:03:19;;;;;;;6.65;4.50;;;;;;;;;;4976678;28;20596;-79
2022/06/30 07:05:45;;;;;;;7.55;4.80;;;;;;;;;;4976152;28;20023;-79
2022/06/30 07:08:11;;;;;;;7.13;4.68;;;;;;;;;;4991285;28;20528;-79
2022/06/30 07:10:37;;;;;;;7.10;4.50;;;;;;;;;;5001669;28;20488;-79
2022/06/30 07:13:03;;;;;;;6.45;4.45;;;;;;;;;;4995729;28;20037;-79
2022/06/30 07:15:29;;;;;;;9.00;4.72;;;;;;;;;;4995631;28;20026;-80
2022/06/30 07:17:55;;;;;;;7.82;4.55;;;;;;;;;;4995653;28;20030;-79
2022/06/30 07:20:21;;;;;;;7.82;5.07;;;;;;;;;;4995535;28;20066;-79
2022/06/30 07:22:47;;;;;;;7.90;4.45;;;;;;;;;;4995601;28;20105;-79
2022/06/30 07:25:13;;;;;;;6.47;4.15;;;;;;;;;;5000530;28;20042;-79
2022/06/30 07:27:42;;;;;;;6.95;4.00;;;;;;;;;;5009533;28;20034;-79
2022/06/30 07:30:08;;;;;;;7.05;4.28;;;;;;;;;;5014912;28;20032;-78
2022/06/30 07:32:35;;;;;;;6.15;3.90;;;;;;;;;;5000977;28;20033;-78
2022/06/30 07:35:01;;;;;;;7.05;3.33;;;;;;;;;;5010203;28;20040;-79
2022/06/30 07:37:27;;;;;;;5.28;3.35;;;;;;;;;;5012638;28;20061;-79
2022/06/30 07:39:53;;;;;;;5.95;3.40;;;;;;;;;;5015188;28;20037;-79
2022/06/30 07:42:19;;;;;;;5.72;3.67;;;;;;;;;;4996473;28;20041;-79
2022/06/30 07:44:45;;;;;;;5.97;3.53;;;;;;;;;;4995382;28;20058;-79
2022/06/30 07:47:11;;;;;;;6.38;3.42;;;;;;;;;;4995674;28;20034;-79
2022/06/30 07:49:38;;;;;;;6.63;3.63;;;;;;;;;;4995917;28;20031;-78
2022/06/30 07:52:04;;;;;;;6.07;3.38;;;;;;;;;;5005819;28;20092;-78
2022/06/30 07:54:32;;;;;;;6.10;3.33;;;;;;;;;;5016572;28;20113;-79
2022/06/30 07:56:58;;;;;;;6.72;4.18;;;;;;;;;;5014185;28;20404;-78
2022/06/30 07:59:24;;;;;;;5.93;3.90;;;;;;;;;;5016763;28;20036;-78
2022/06/30 08:01:50;;;;;;;6.38;4.28;;;;;;;;;;5005980;28;20034;-77
2022/06/30 08:04:17;;;;;;;5.88;4.05;;;;;;;;;;4999250;28;20037;-79
2022/06/30 08:06:43;;;;;;;6.03;3.85;;;;;;;;;;5017446;28;20057;-79
2022/06/30 08:09:09;;;;;;;6.55;4.10;;;;;;;;;;5013199;28;20026;-78
2022/06/30 08:11:35;;;;;;;5.90;3.70;;;;;;;;;;5014225;28;20026;-80
2022/06/30 08:14:01;;;;;;;5.78;3.50;;;;;;;;;;5014986;28;20073;-79
2022/06/30 08:16:27;;;;;;;7.75;3.97;;;;;;;;;;5016139;28;20025;-79
2022/06/30 08:18:53;;;;;;;6.35;3.30;;;;;;;;;;5008243;28;20518;-80
2022/06/30 08:21:19;;;;;;;6.10;3.80;;;;;;;;;;5013740;28;20030;-79
2022/06/30 08:23:45;;;;;;;5.88;3.92;;;;;;;;;;5014464;28;20029;-80
2022/06/30 08:26:11;;;;;;;6.22;3.55;;;;;;;;;;5014717;28;20028;-80
2022/06/30 08:28:38;;;;;;;7.15;3.78;;;;;;;;;;5013624;28;20109;-79
2022/06/30 08:31:04;;;;;;;6.45;4.72;;;;;;;;;;5010867;28;20667;-79
2022/06/30 08:33:30;;;;;;;5.70;3.80;;;;;;;;;;4994484;28;20042;-79
2022/06/30 08:35:57;;;;;;;6.55;4.18;;;;;;;;;;4995549;28;20047;-79
2022/06/30 08:38:23;;;;;;;6.70;3.92;;;;;;;;;;5014532;28;20030;-79
2022/06/30 08:43:34;;;;;;;6.43;4.07;;;;;;;;;;5014856;28;20036;-77
2022/06/30 08:46:01;;;;;;;8.20;4.50;;;;;;;;;;5007952;28;20038;-78
2022/06/30 08:48:28;;;;;;;5.72;3.78;;;;;;;;;;4995513;28;20027;-78
2022/06/30 08:50:58;;;;;;;6.45;4.22;;;;;;;;;;4996022;28;20030;-78
2022/06/30 08:53:25;;;;;;;5.57;3.70;;;;;;;;;;4997786;28;20053;-78
2022/06/30 08:55:51;;;;;;;5.60;3.95;;;;;;;;;;4996176;28;20031;-79
2022/06/30 08:58:19;;;;;;;7.07;4.20;;;;;;;;;;5014356;28;20030;-79
2022/06/30 09:00:45;;;;;;;6.38;4.10;;;;;;;;;;5011122;28;20044;-78
2022/06/30 09:03:11;;;;;;;7.85;4.57;;;;;;;;;;5006901;28;20409;-79
2022/06/30 09:05:39;;;;;;;6.57;4.18;;;;;;;;;;4998870;28;20035;-79
2022/06/30 09:08:05;;;;;;;8.02;4.82;;;;;;;;;;5000210;28;20117;-80
2022/06/30 09:10:31;;;;;;;6.47;4.30;;;;;;;;;;5017930;28;20082;-79
2022/06/30 09:13:01;;;;;;;6.40;4.38;;;;;;;;;;5018170;28;20487;-79
2022/06/30 09:15:31;;;;;;;5.88;4.43;;;;;;;;;;4999761;28;20117;-78
2022/06/30 09:18:01;;;;;;;6.70;4.30;;;;;;;;;;4997782;28;20101;-79
2022/06/30 09:20:41;;;;;;;5.95;3.92;;;;;;;;;;5010345;28;20030;-79
2022/06/30 09:23:26;;;;;;;7.07;4.55;;;;;;;;;;5017278;28;20036;-79
2022/06/30 09:25:53;;;;;;;6.97;4.28;;;;;;;;;;5016699;28;20037;-80
2022/06/30 09:28:58;;;;;;;5.75;4.00;;;;;;;;;;5015018;28;20076;-80
2022/06/30 09:31:35;;;;;;;7.68;4.20;;;;;;;;;;4956587;29;20067;-80
2022/06/30 09:34:19;;;;;;;7.40;4.88;;;;;;;;;;4972942;28;20046;-79
2022/06/30 09:36:45;;;;;;;6.18;4.38;;;;;;;;;;4976153;28;20031;-79
2022/06/30 09:39:16;;;;;;;7.55;5.10;;;;;;;;;;4976274;28;20031;-79
2022/06/30 09:41:43;;;;;;;6.93;4.20;;;;;;;;;;4974434;28;20505;-79
2022/06/30 09:44:18;;;;;;;6.65;4.13;;;;;;;;;;4970727;28;20041;-79
2022/06/30 09:46:58;;;;;;;6.18;3.80;;;;;;;;;;4974116;28;20095;-79
2022/06/30 09:49:30;;;;;;;6.15;3.75;;;;;;;;;;4972879;28;20583;-79
2022/06/30 09:51:56;;;;;;;7.40;4.05;;;;;;;;;;4955761;29;20027;-79
2022/06/30 09:54:22;;;;;;;6.22;4.28;;;;;;;;;;4970680;28;20041;-79
2022/06/30 09:57:02;;;;;;;7.68;3.97;;;;;;;;;;4969205;28;20383;-78
2022/06/30 09:59:28;;;;;;;6.38;3.95;;;;;;;;;;4975089;28;20027;-79
2022/06/30 10:01:54;;;;;;;6.72;4.47;;;;;;;;;;4980554;28;20038;-78
2022/06/30 10:04:20;;;;;;;5.22;3.88;;;;;;;;;;4990830;28;20104;-78
2022/06/30 10:06:47;;;;;;;6.25;3.90;;;;;;;;;;4985931;28;20023;-79
2022/06/30 10:09:16;;;;;;;8.05;4.85;;;;;;;;;;4985248;28;20027;-79
2022/06/30 10:11:43;;;;;;;5.07;3.65;;;;;;;;;;4993594;28;20025;-78
2022/06/30 10:14:11;;;;;;;7.10;4.32;;;;;;;;;;4996302;28;20026;-79
2022/06/30 10:16:40;;;;;;;8.00;4.43;;;;;;;;;;5000663;28;20410;-79
2022/06/30 10:19:07;;;;;;;5.78;4.25;;;;;;;;;;4995461;28;20026;-79
2022/06/30 10:21:34;;;;;;;6.00;4.40;;;;;;;;;;4997924;28;20583;-79
2022/06/30 10:24:00;;;;;;;6.72;3.90;;;;;;;;;;5011220;28;20022;-79
2022/06/30 10:29:11;;;;;;;5.72;4.03;;;;;;;;;;4981466;28;20048;-79
2022/06/30 10:31:46;;;;;;;6.10;4.25;;;;;;;;;;5009855;28;20346;-79
2022/06/30 10:34:21;;;;;;;6.03;4.03;;;;;;;;;;4992990;28;20042;-78
2022/06/30 10:36:50;;;;;;;5.82;4.50;;;;;;;;;;4993706;28;20073;-79
2022/06/30 10:39:34;;;;;;;6.63;4.45;;;;;;;;;;4994334;28;20041;-79
2022/06/30 10:42:00;;;;;;;6.82;4.03;;;;;;;;;;4996360;28;20404;-79
2022/06/30 10:44:28;;;;;;;5.93;4.55;;;;;;;;;;4996210;28;20037;-79
2022/06/30 10:46:57;;;;;;;9.23;5.10;;;;;;;;;;4994602;28;20079;-80
2022/06/30 10:49:27;;;;;;;6.50;4.18;;;;;;;;;;5012703;28;20026;-78
2022/06/30 10:51:57;;;;;;;6.72;4.55;;;;;;;;;;5015108;28;20053;-78
2022/06/30 10:54:30;;;;;;;5.85;4.35;;;;;;;;;;5015428;28;20041;-79
2022/06/30 10:56:56;;;;;;;5.85;4.35;;;;;;;;;;5000010;28;20038;-79
2022/06/30 10:59:29;;;;;;;8.10;4.63;;;;;;;;;;4996088;28;20019;-78
2022/06/30 11:02:10;;;;;;;6.38;4.15;;;;;;;;;;5000408;28;20033;-78
2022/06/30 11:04:37;;;;;;;6.45;4.47;;;;;;;;;;5004769;28;20104;-79
2022/06/30 11:07:06;;;;;;;7.60;4.80;;;;;;;;;;5011419;28;20861;-79
2022/06/30 11:09:44;;;;;;;5.93;4.20;;;;;;;;;;4994438;28;20026;-80
2022/06/30 11:12:11;;;;;;;6.88;4.45;;;;;;;;;;4991370;28;20058;-78
2022/06/30 11:14:37;;;;;;;6.10;4.78;;;;;;;;;;4993521;28;20019;-79
2022/06/30 11:17:16;;;;;;;6.00;4.57;;;;;;;;;;4990965;28;20405;-79
2022/06/30 11:19:42;;;;;;;6.80;4.60;;;;;;;;;;4991517;28;20030;-79
2022/06/30 11:22:08;;;;;;;6.30;4.70;;;;;;;;;;4993112;28;20034;-79
2022/06/30 11:24:39;;;;;;;8.05;5.13;;;;;;;;;;4993846;28;20026;-79
2022/06/30 11:29:56;;;;;;;6.47;4.35;;;;;;;;;;4993230;28;20033;-78
2022/06/30 11:32:23;;;;;;;6.00;4.28;;;;;;;;;;4993379;28;20033;-78
2022/06/30 11:34:49;;;;;;;6.00;4.88;;;;;;;;;;4990835;28;20129;-79
2022/06/30 11:37:23;;;;;;;6.85;4.65;;;;;;;;;;4992699;28;20034;-77
2022/06/30 11:39:59;;;;;;;6.35;4.65;;;;;;;;;;4995827;28;20045;-79
2022/06/30 11:42:25;;;;;;;7.90;4.75;;;;;;;;;;5001405;28;20108;-79
2022/06/30 11:44:51;;;;;;;7.07;4.47;;;;;;;;;;4997097;28;20122;-80
2022/06/30 11:47:18;;;;;;;6.63;4.60;;;;;;;;;;5012972;28;20480;-79
2022/06/30 11:49:46;;;;;;;6.95;4.63;;;;;;;;;;4995868;28;20035;-79
2022/06/30 11:52:14;;;;;;;6.40;5.25;;;;;;;;;;4994566;28;20034;-78
2022/06/30 11:54:41;;;;;;;7.00;4.70;;;;;;;;;;4993384;28;20084;-79
2022/06/30 11:57:08;;;;;;;6.88;5.07;;;;;;;;;;4999921;28;20022;-78
2022/06/30 11:59:34;;;;;;;6.03;4.40;;;;;;;;;;5014085;28;20026;-79
2022/06/30 12:02:05;;;;;;;8.18;4.80;;;;;;;;;;5013883;28;20025;-79
2022/06/30 12:04:32;;;;;;;8.15;5.03;;;;;;;;;;4994257;28;20034;-79
2022/06/30 12:06:58;;;;;;;9.40;5.50;;;;;;;;;;4999422;28;20156;-80
2022/06/30 12:09:24;;;;;;;7.28;5.18;;;;;;;;;;5014202;28;20056;-79
2022/06/30 12:11:51;;;;;;;6.30;5.03;;;;;;;;;;4996260;28;20026;-79
2022/06/30 12:14:17;;;;;;;6.90;4.75;;;;;;;;;;4998806;28;20029;-79
2022/06/30 12:16:44;;;;;;;6.25;4.90;;;;;;;;;;5008942;28;20033;-79
2022/06/30 12:19:14;;;;;;;6.43;4.70;;;;;;;;;;4994205;28;20026;-79
2022/06/30 12:21:40;;;;;;;6.78;5.10;;;;;;;;;;4994312;28;20080;-82
2022/06/30 12:24:07;;;;;;;7.05;4.80;;;;;;;;;;5013191;28;20421;-79
2022/06/30 12:26:33;;;;;;;8.25;4.95;;;;;;;;;;5014229;28;20030;-79
2022/06/30 12:29:01;;;;;;;8.13;5.05;;;;;;;;;;5012066;28;20053;-79
2022/06/30 12:31:28;;;;;;;6.50;4.80;;;;;;;;;;5005266;28;20022;-78
2022/06/30 12:33:55;;;;;;;6.10;4.90;;;;;;;;;;5012413;28;20060;-78
2022/06/30 12:36:21;;;;;;;8.45;5.28;;;;;;;;;;4997249;28;20055;-80
2022/06/30 12:38:48;;;;;;;7.07;5.13;;;;;;;;;;4985940;28;20032;-79
2022/06/30 12:41:14;;;;;;;5.90;4.50;;;;;;;;;;4993776;28;20069;-79
2022/06/30 12:43:49;;;;;;;6.53;5.00;;;;;;;;;;5000171;28;20029;-77
2022/06/30 12:46:16;;;;;;;7.10;5.28;;;;;;;;;;5011683;28;20037;-78
2022/06/30 12:48:51;;;;;;;6.90;5.10;;;;;;;;;;5012744;28;20030;-79
2022/06/30 12:51:29;;;;;;;5.88;4.70;;;;;;;;;;5013144;28;20132;-79
2022/06/30 12:53:59;;;;;;;6.30;5.00;;;;;;;;;;5012936;28;20033;-80
2022/06/30 12:56:27;;;;;;;7.50;5.30;;;;;;;;;;4977903;28;20392;-79
2022/06/30 12:59:03;;;;;;;6.63;5.35;;;;;;;;;;5008487;28;20048;-79
2022/06/30 13:01:30;;;;;;;7.25;5.32;;;;;;;;;;5013207;28;20353;-78
2022/06/30 13:03:58;;;;;;;7.07;5.50;;;;;;;;;;5012530;28;20050;-79
2022/06/30 13:06:25;;;;;;;6.97;5.20;;;;;;;;;;5012767;28;20022;-79
2022/06/30 13:08:52;;;;;;;7.30;5.05;;;;;;;;;;5011227;28;20457;-79
2022/06/30 13:11:21;;;;;;;7.72;5.45;;;;;;;;;;5008166;28;20026;-79
2022/06/30 13:13:48;;;;;;;7.10;5.38;;;;;;;;;;5003211;28;20037;-79
2022/06/30 13:16:15;;;;;;;7.55;5.07;;;;;;;;;;4993753;28;20025;-79
2022/06/30 13:18:41;;;;;;;7.18;5.32;;;;;;;;;;4993631;28;20030;-79
2022/06/30 13:21:07;;;;;;;6.85;5.80;;;;;;;;;;4992008;28;20109;-79
2022/06/30 13:23:33;;;;;;;7.30;5.68;;;;;;;;;;4993291;28;20022;-80
2022/06/30 13:25:59;;;;;;;9.45;5.15;;;;;;;;;;5006087;28;20049;-79
2022/06/30 13:28:25;;;;;;;6.80;5.47;;;;;;;;;;5012864;28;20029;-79
2022/06/30 13:30:51;;;;;;;9.55;5.45;;;;;;;;;;5012533;28;20388;-79
2022/06/30 13:33:17;;;;;;;7.65;5.32;;;;;;;;;;5012491;28;20026;-79
2022/06/30 13:35:43;;;;;;;8.23;5.20;;;;;;;;;;5011079;28;20123;-79
2022/06/30 13:38:09;;;;;;;7.75;5.70;;;;;;;;;;5009924;28;20479;-79
2022/06/30 13:40:38;;;;;;;10.15;5.90;;;;;;;;;;5012122;28;20037;-78
2022/06/30 13:43:04;;;;;;;7.35;5.85;;;;;;;;;;5012520;28;20029;-79
2022/06/30 13:45:31;;;;;;;7.00;5.50;;;;;;;;;;5011831;28;20515;-78
2022/06/30 13:47:57;;;;;;;6.93;5.75;;;;;;;;;;4998972;28;20105;-80
2022/06/30 13:50:23;;;;;;;9.15;6.05;;;;;;;;;;4996519;28;20018;-79
2022/06/30 13:52:49;;;;;;;7.25;5.53;;;;;;;;;;4994415;28;20026;-78
2022/06/30 13:55:15;;;;;;;7.53;5.30;;;;;;;;;;4997728;28;20022;-77
2022/06/30 13:57:41;;;;;;;7.55;6.22;;;;;;;;;;5011461;28;20025;-78
2022/06/30 14:00:08;;;;;;;7.65;5.65;;;;;;;;;;5015933;28;20037;-79
2022/06/30 14:02:34;;;;;;;6.95;5.18;;;;;;;;;;5014276;28;20030;-79
2022/06/30 14:05:00;;;;;;;6.97;5.50;;;;;;;;;;5015610;28;20164;-79
2022/06/30 14:07:27;;;;;;;6.95;6.13;;;;;;;;;;4992286;28;20035;-79
2022/06/30 14:09:53;;;;;;;6.53;5.80;;;;;;;;;;5008159;28;20531;-79
2022/06/30 14:12:20;;;;;;;8.43;6.05;;;;;;;;;;5004524;28;20033;-79
2022/06/30 14:14:46;;;;;;;6.93;5.32;;;;;;;;;;4994946;28;20575;-78
2022/06/30 14:17:12;;;;;;;7.38;5.90;;;;;;;;;;4993323;28;20117;-77
2022/06/30 14:19:38;;;;;;;7.20;6.10;;;;;;;;;;4997684;28;20022;-79
2022/06/30 14:22:04;;;;;;;9.85;6.13;;;;;;;;;;5002464;28;20508;-78
2022/06/30 14:24:30;;;;;;;8.38;6.07;;;;;;;;;;4980063;28;20027;-78
2022/06/30 14:26:56;;;;;;;7.25;6.00;;;;;;;;;;4974968;28;20029;-78
2022/06/30 14:29:22;;;;;;;7.68;5.53;;;;;;;;;;4977173;28;20027;-79
2022/06/30 14:31:49;;;;;;;6.75;5.70;;;;;;;;;;5004426;28;20034;-78
2022/06/30 14:34:15;;;;;;;7.18;5.50;;;;;;;;;;4994140;28;20097;-78
2022/06/30 14:36:41;;;;;;;6.78;6.07;;;;;;;;;;5009059;28;20025;-78
2022/06/30 14:39:07;;;;;;;6.28;5.45;;;;;;;;;;5013597;28;20026;-78
2022/06/30 14:44:18;;;;;;;9.13;5.45;;;;;;;;;;5011872;28;20036;-76
2022/06/30 14:46:44;;;;;;;8.27;6.00;;;;;;;;;;5013616;28;20034;-78
2022/06/30 14:49:10;;;;;;;7.40;5.70;;;;;;;;;;5010577;28;20034;-78
2022/06/30 14:51:36;;;;;;;7.20;5.60;;;;;;;;;;5010682;28;20022;-77
2022/06/30 14:54:02;;;;;;;7.28;6.32;;;;;;;;;;5013083;28;20100;-76
2022/06/30 14:56:28;;;;;;;8.85;5.97;;;;;;;;;;5011612;28;20029;-77
2022/06/30 14:58:54;;;;;;;9.30;5.95;;;;;;;;;;5012686;28;20026;-78
2022/06/30 15:01:20;;;;;;;10.10;6.70;;;;;;;;;;5006614;28;20029;-77
2022/06/30 15:03:46;;;;;;;7.03;5.45;;;;;;;;;;4992362;28;20089;-78
2022/06/30 15:06:12;;;;;;;7.53;5.45;;;;;;;;;;4993272;28;20455;-77
2022/06/30 15:08:39;;;;;;;8.85;5.70;;;;;;;;;;4993361;28;20124;-77